Time;durP1;ratioP1;P1;durP2;ratioP2;P2;SDS_P1;SDS_P2;PMS_P1;PMS_P2;Temp;Humidity;BMP_temperature;BMP_pressure;BME280_temperature;BME280_humidity;BME280_pressure;Samples;Min_cycle;Max_cycle;Signal;HPM_P1;HPM_P2
2022/08/13 00:00:43;;;;;;;6.80;5.67;;;;;;;21.73;81.01;99611.41;1782638;80;21217;-74
2022/08/13 00:03:13;;;;;;;7.78;6.15;;;;;;;21.70;80.62;99615.20;1782986;80;21028;-74
2022/08/13 00:05:40;;;;;;;7.53;5.85;;;;;;;21.69;80.47;99616.17;1782656;80;21067;-74
2022/08/13 00:08:07;;;;;;;10.55;6.10;;;;;;;21.68;79.95;99608.25;1783087;80;21106;-73
2022/08/13 00:10:34;;;;;;;7.67;5.70;;;;;;;21.66;79.82;99598.16;1782677;80;21021;-74
2022/08/13 00:13:03;;;;;;;10.05;5.83;;;;;;;21.61;79.71;99593.16;1782858;80;21176;-74
2022/08/13 00:15:35;;;;;;;13.32;6.00;;;;;;;21.61;79.50;99585.62;1782648;80;21009;-74
2022/08/13 00:18:06;;;;;;;7.95;5.97;;;;;;;21.59;79.08;99578.21;1782642;80;21614;-74
2022/08/13 00:20:44;;;;;;;6.50;5.33;;;;;;;21.56;78.66;99563.72;1783135;80;21107;-74
2022/08/13 00:23:15;;;;;;;13.38;6.03;;;;;;;21.52;78.68;99568.47;1782754;80;21044;-74
2022/08/13 00:25:43;;;;;;;6.17;5.25;;;;;;;21.48;78.50;99565.16;1782648;80;21130;-74
2022/08/13 00:28:11;;;;;;;6.00;5.17;;;;;;;21.47;78.18;99571.51;1783026;80;21052;-74
2022/08/13 00:30:38;;;;;;;7.17;5.50;;;;;;;21.43;77.44;99570.00;1782562;80;21072;-75
2022/08/13 00:33:11;;;;;;;9.63;5.03;;;;;;;21.40;77.50;99558.69;1783077;80;21013;-74
2022/08/13 00:35:37;;;;;;;6.87;5.47;;;;;;;21.36;77.39;99552.73;1782463;80;21095;-73
2022/08/13 00:38:08;;;;;;;7.03;5.60;;;;;;;21.31;77.25;99544.21;1782573;80;21135;-75
2022/08/13 00:40:35;;;;;;;8.45;5.30;;;;;;;21.27;77.17;99534.73;1782469;80;21005;-74
2022/08/13 00:43:03;;;;;;;12.43;5.40;;;;;;;21.26;76.80;99539.71;1782775;80;21654;-74
2022/08/13 00:45:31;;;;;;;7.55;5.08;;;;;;;21.23;76.78;99538.61;1783093;80;21490;-74
2022/08/13 00:50:44;;;;;;;8.90;4.72;;;;;;;21.21;76.62;99533.38;1783282;80;21109;-74
2022/08/13 00:53:17;;;;;;;10.53;5.37;;;;;;;21.20;76.47;99541.52;1782761;80;21068;-74
2022/08/13 00:55:48;;;;;;;6.08;5.08;;;;;;;21.20;76.48;99542.86;1782870;80;21009;-74
2022/08/13 00:58:17;;;;;;;9.00;5.40;;;;;;;21.19;76.40;99529.13;1782815;80;21749;-73
2022/08/13 01:00:50;;;;;;;9.55;5.47;;;;;;;21.17;76.44;99517.70;1784378;79;21158;-74
2022/08/13 01:03:17;;;;;;;8.10;5.17;;;;;;;21.13;76.12;99515.27;1783930;80;21121;-74
2022/08/13 01:05:46;;;;;;;5.45;4.95;;;;;;;21.08;76.32;99514.78;1765114;81;21048;-74
2022/08/13 01:08:19;;;;;;;7.92;5.22;;;;;;;21.06;76.49;99515.86;1765353;81;21842;-73
2022/08/13 01:10:46;;;;;;;6.45;4.90;;;;;;;21.05;76.57;99512.84;1783864;80;21469;-74
2022/08/13 01:13:13;;;;;;;6.45;4.95;;;;;;;21.04;76.52;99513.30;1784642;80;21359;-74
2022/08/13 01:15:41;;;;;;;9.85;4.75;;;;;;;21.03;76.65;99513.42;1784728;80;21111;-74
2022/08/13 01:18:13;;;;;;;8.48;4.87;;;;;;;21.02;76.82;99506.38;1784727;80;21111;-74
2022/08/13 01:20:45;;;;;;;5.40;4.70;;;;;;;21.02;76.96;99509.90;1784569;80;21550;-74
2022/08/13 01:23:14;;;;;;;6.58;5.03;;;;;;;21.02;77.03;99517.92;1785241;80;21012;-74
2022/08/13 01:25:42;;;;;;;5.10;4.60;;;;;;;21.03;76.93;99518.30;1784452;80;21043;-74
2022/08/13 01:28:08;;;;;;;9.35;4.80;;;;;;;21.02;76.83;99508.56;1785229;80;21087;-73
2022/08/13 01:30:35;;;;;;;6.10;4.80;;;;;;;21.01;76.85;99522.89;1784665;80;21032;-74
2022/08/13 01:33:02;;;;;;;8.83;5.55;;;;;;;21.00;76.61;99519.00;1784757;80;21012;-74
2022/08/13 01:35:29;;;;;;;5.30;4.75;;;;;;;20.97;76.50;99514.77;1777250;80;21106;-74
2022/08/13 01:37:57;;;;;;;7.37;6.15;;;;;;;20.96;76.45;99502.34;1782991;80;21004;-74
2022/08/13 01:40:24;;;;;;;8.65;6.03;;;;;;;20.96;76.54;99499.67;1783151;80;21113;-74
2022/08/13 01:42:52;;;;;;;10.30;6.33;;;;;;;20.93;76.54;99502.11;1782980;80;21082;-74
2022/08/13 01:45:19;;;;;;;8.10;5.87;;;;;;;20.90;76.47;99500.17;1782800;80;21046;-74
2022/08/13 01:50:31;;;;;;;9.03;5.47;;;;;;;20.86;76.44;99518.25;1748624;82;21541;-74
2022/08/13 01:53:09;;;;;;;8.83;5.58;;;;;;;20.85;76.63;99513.05;1751918;81;21601;-74
2022/08/13 01:55:48;;;;;;;7.08;5.35;;;;;;;20.83;76.71;99505.61;1747242;82;21138;-74
2022/08/13 01:58:22;;;;;;;8.98;5.35;;;;;;;20.81;76.84;99495.52;1730736;82;21059;-75
2022/08/13 02:00:53;;;;;;;6.22;4.80;;;;;;;20.78;76.94;99496.13;1782887;80;21078;-74
2022/08/13 02:03:20;;;;;;;6.47;4.72;;;;;;;20.77;76.97;99491.74;1783009;80;21071;-75
2022/08/13 02:05:50;;;;;;;7.20;4.45;;;;;;;20.78;76.99;99494.80;1738929;81;21135;-74
2022/08/13 02:08:22;;;;;;;11.08;4.30;;;;;;;20.77;76.91;99492.23;1737551;82;21044;-74
2022/08/13 02:10:52;;;;;;;7.40;4.75;;;;;;;20.74;77.01;99491.97;1774138;80;21122;-74
2022/08/13 02:13:26;;;;;;;6.00;4.62;;;;;;;20.71;77.18;99496.25;1774827;80;21051;-75
2022/08/13 02:15:52;;;;;;;9.05;5.20;;;;;;;20.68;77.38;99497.81;1774272;80;21135;-74
2022/08/13 02:18:21;;;;;;;8.23;5.03;;;;;;;20.68;77.57;99504.50;1774548;80;21716;-74
2022/08/13 02:20:54;;;;;;;7.28;4.90;;;;;;;20.68;77.59;99497.81;1774084;80;21090;-74
2022/08/13 02:23:23;;;;;;;6.28;4.40;;;;;;;20.67;77.43;99500.61;1774269;80;21541;-75
2022/08/13 02:25:50;;;;;;;8.75;5.03;;;;;;;20.64;77.41;99496.33;1774525;80;21039;-75
2022/08/13 02:28:19;;;;;;;7.35;5.10;;;;;;;20.62;77.34;99496.91;1774540;80;21546;-74
2022/08/13 02:30:52;;;;;;;8.50;4.85;;;;;;;20.60;77.34;99489.00;1774419;80;21143;-74
2022/08/13 02:33:18;;;;;;;6.53;4.70;;;;;;;20.62;77.28;99488.89;1774302;80;21019;-74
2022/08/13 02:35:46;;;;;;;10.82;5.10;;;;;;;20.63;77.10;99485.75;1774322;80;21470;-74
2022/08/13 02:38:13;;;;;;;5.85;4.65;;;;;;;20.62;77.06;99482.20;1774250;80;21145;-74
2022/08/13 02:43:25;;;;;;;10.75;5.15;;;;;;;20.60;77.60;99469.45;1737284;82;21161;-73
2022/08/13 02:45:53;;;;;;;5.83;4.55;;;;;;;20.59;77.77;99467.73;1774344;80;21982;-74
2022/08/13 02:48:26;;;;;;;6.50;4.75;;;;;;;20.54;78.05;99459.22;1737761;82;22217;-74
2022/08/13 02:50:55;;;;;;;7.28;5.10;;;;;;;20.50;78.24;99453.27;1737306;82;21514;-75
2022/08/13 02:53:23;;;;;;;7.65;4.62;;;;;;;20.48;78.46;99447.19;1774677;80;21161;-74
2022/08/13 02:55:50;;;;;;;9.23;4.65;;;;;;;20.47;78.46;99453.98;1774537;80;21110;-74
2022/08/13 02:58:17;;;;;;;7.03;4.72;;;;;;;20.47;78.44;99455.33;1737643;82;21023;-73
2022/08/13 03:00:48;;;;;;;6.78;4.85;;;;;;;20.45;78.50;99450.59;1737125;82;21127;-74
2022/08/13 03:03:19;;;;;;;5.72;4.58;;;;;;;20.41;78.56;99442.80;1737325;82;20964;-74
2022/08/13 03:05:46;;;;;;;6.00;4.92;;;;;;;20.40;78.45;99441.58;1776905;80;21051;-74
2022/08/13 03:08:12;;;;;;;11.30;5.03;;;;;;;20.39;78.31;99442.54;1743121;82;22048;-74
2022/08/13 03:10:41;;;;;;;7.67;4.80;;;;;;;20.38;78.03;99436.84;1769209;81;21071;-74
2022/08/13 03:13:16;;;;;;;9.60;4.40;;;;;;;20.36;78.10;99442.80;1769734;81;20988;-75
2022/08/13 03:15:44;;;;;;;7.95;5.28;;;;;;;20.35;78.32;99453.95;1743400;82;21107;-74
2022/08/13 03:18:11;;;;;;;8.73;5.08;;;;;;;20.35;78.34;99452.61;1769705;81;21574;-74
2022/08/13 03:20:40;;;;;;;6.67;4.80;;;;;;;20.33;78.34;99449.22;1769841;81;21816;-74
2022/08/13 03:23:07;;;;;;;7.55;4.62;;;;;;;20.36;78.25;99461.02;1769389;81;21063;-74
2022/08/13 03:25:34;;;;;;;9.85;4.97;;;;;;;20.36;78.16;99462.34;1743174;82;21193;-74
2022/08/13 03:28:01;;;;;;;10.30;4.92;;;;;;;20.34;78.06;99461.62;1770039;81;21111;-73
2022/08/13 03:30:33;;;;;;;10.53;5.33;;;;;;;20.34;78.11;99469.64;1769623;81;21021;-74
2022/08/13 03:32:57;;;;;;;6.20;4.65;;;;;;;20.34;78.06;99469.64;1742808;82;21154;-74
2022/08/13 03:35:24;;;;;;;6.25;4.60;;;;;;;20.33;78.07;99473.27;1751374;81;21000;-75
2022/08/13 03:37:53;;;;;;;7.58;4.72;;;;;;;20.33;78.04;99478.61;1761260;80;21090;-73
2022/08/13 03:40:22;;;;;;;10.38;5.08;;;;;;;20.33;78.18;99476.43;1744185;80;21980;-74
2022/08/13 03:42:49;;;;;;;8.05;4.97;;;;;;;20.32;78.30;99475.55;1812628;79;21050;-74
2022/08/13 03:45:17;;;;;;;6.30;4.53;;;;;;;20.31;78.37;99477.88;1813103;79;21085;-74
2022/08/13 03:47:44;;;;;;;9.63;4.80;;;;;;;20.32;78.43;99483.56;1784018;80;21003;-75
2022/08/13 03:50:12;;;;;;;12.03;4.60;;;;;;;20.33;78.87;99477.27;1812840;79;21034;-73
2022/08/13 03:52:39;;;;;;;10.20;5.05;;;;;;;20.32;79.30;99471.55;1812663;79;21046;-74
2022/08/13 03:55:10;;;;;;;9.50;4.67;;;;;;;20.30;79.65;99466.81;1812780;79;21062;-73
2022/08/13 03:57:41;;;;;;;9.70;4.70;;;;;;;20.29;79.85;99466.92;1784197;80;21033;-74
2022/08/13 04:00:12;;;;;;;8.25;5.20;;;;;;;20.29;80.05;99461.12;1812532;78;21081;-74
2022/08/13 04:02:41;;;;;;;10.15;4.87;;;;;;;20.29;80.27;99478.48;1812302;78;20984;-75
2022/08/13 04:05:13;;;;;;;10.88;5.08;;;;;;;20.27;80.42;99477.72;1774270;80;20987;-75
2022/08/13 04:07:39;;;;;;;12.53;4.83;;;;;;;20.26;80.44;99488.06;1751898;81;21083;-74
2022/08/13 04:10:09;;;;;;;10.95;5.55;;;;;;;20.25;80.02;99486.34;1752312;81;21131;-75
2022/08/13 04:12:37;;;;;;;11.73;4.80;;;;;;;20.25;79.57;99495.70;1751964;81;20980;-75
2022/08/13 04:15:06;;;;;;;10.80;5.12;;;;;;;20.24;79.81;99494.02;1751928;81;21056;-75
2022/08/13 04:17:36;;;;;;;9.45;5.25;;;;;;;20.24;79.80;99487.33;1751973;81;21031;-74
2022/08/13 04:20:05;;;;;;;8.15;5.37;;;;;;;20.23;79.88;99504.32;1752260;81;21138;-74
2022/08/13 04:22:33;;;;;;;9.65;4.97;;;;;;;20.21;79.98;99498.24;1751960;81;21178;-74
2022/08/13 04:25:00;;;;;;;18.62;5.55;;;;;;;20.20;80.15;99510.73;1752001;81;21046;-74
2022/08/13 04:27:26;;;;;;;10.20;5.25;;;;;;;20.19;80.45;99509.05;1752281;81;21078;-74
2022/08/13 04:29:55;;;;;;;12.40;5.47;;;;;;;20.18;80.63;99505.15;1749487;82;21069;-75
2022/08/13 04:32:23;;;;;;;11.38;5.40;;;;;;;20.17;80.76;99506.98;1782618;80;21215;-75
2022/08/13 04:34:50;;;;;;;6.72;4.92;;;;;;;20.20;80.84;99511.22;1756928;81;21324;-74
2022/08/13 04:37:17;;;;;;;8.40;4.97;;;;;;;20.22;81.14;99517.30;1763242;81;21395;-74
2022/08/13 04:39:44;;;;;;;9.05;5.42;;;;;;;20.20;81.42;99509.89;1763351;80;20995;-74
2022/08/13 04:42:11;;;;;;;12.30;5.42;;;;;;;20.18;81.57;99518.50;1763444;81;21074;-74
2022/08/13 04:44:37;;;;;;;11.00;5.65;;;;;;;20.16;82.03;99520.45;1763498;81;21624;-76
2022/08/13 04:47:04;;;;;;;12.50;5.35;;;;;;;20.11;82.81;99514.59;1763363;81;21944;-74
2022/08/13 04:49:31;;;;;;;16.30;5.87;;;;;;;20.06;83.60;99510.92;1763554;81;21023;-73
2022/08/13 04:51:58;;;;;;;18.42;6.22;;;;;;;19.98;84.71;99504.80;1763337;81;21015;-73
2022/08/13 04:54:25;;;;;;;13.32;5.15;;;;;;;19.92;85.57;99489.71;1763406;81;21031;-73
2022/08/13 04:56:51;;;;;;;17.37;5.97;;;;;;;19.88;86.10;99485.09;1763295;81;21031;-73
2022/08/13 04:59:18;;;;;;;17.10;5.87;;;;;;;19.83;86.44;99496.09;1763641;81;21758;-73
2022/08/13 05:01:44;;;;;;;10.08;5.15;;;;;;;19.79;86.92;99504.47;1763175;81;21015;-74
2022/08/13 05:04:11;;;;;;;16.37;5.45;;;;;;;19.75;87.26;99501.63;1763207;81;21069;-73
2022/08/13 05:06:38;;;;;;;9.50;5.10;;;;;;;19.71;87.65;99497.47;1763062;81;21022;-74
2022/08/13 05:09:05;;;;;;;9.73;5.00;;;;;;;19.71;87.76;99494.80;1763357;80;20987;-74
2022/08/13 05:11:31;;;;;;;8.88;4.92;;;;;;;19.68;88.10;99479.34;1763530;80;21770;-73
2022/08/13 05:13:59;;;;;;;14.43;6.00;;;;;;;19.68;88.40;99477.17;1763271;80;21074;-73
2022/08/13 05:16:26;;;;;;;12.25;6.12;;;;;;;19.66;88.71;99495.12;1763156;81;21579;-73
2022/08/13 05:18:56;;;;;;;9.53;5.22;;;;;;;19.66;89.10;99489.29;1763343;80;21992;-73
2022/08/13 05:21:23;;;;;;;8.95;5.12;;;;;;;19.67;89.29;99489.67;1763244;81;20986;-74
2022/08/13 05:23:53;;;;;;;8.50;5.70;;;;;;;19.65;89.58;99467.59;1763187;80;21144;-74
2022/08/13 05:26:25;;;;;;;9.78;5.53;;;;;;;19.64;89.88;99466.36;1763483;81;21101;-73
2022/08/13 05:28:52;;;;;;;11.48;5.75;;;;;;;19.65;90.07;99467.59;1763197;80;21074;-73
2022/08/13 05:31:18;;;;;;;8.23;5.33;;;;;;;19.70;90.45;99459.71;1755989;81;21063;-73
2022/08/13 05:33:44;;;;;;;8.85;5.62;;;;;;;19.73;90.81;99466.16;1765178;81;20984;-74
2022/08/13 05:36:11;;;;;;;7.85;5.25;;;;;;;19.78;91.07;99469.38;1803242;79;21595;-74
2022/08/13 05:38:39;;;;;;;11.18;5.20;;;;;;;19.84;91.29;99468.44;1803266;79;21571;-74
2022/08/13 05:41:07;;;;;;;16.42;5.75;;;;;;;19.91;91.39;99472.00;1803379;79;21551;-74
2022/08/13 05:43:36;;;;;;;13.85;5.92;;;;;;;19.94;91.26;99472.63;1803117;79;21071;-74
2022/08/13 05:46:08;;;;;;;14.50;5.72;;;;;;;19.97;91.12;99467.06;1817048;78;20978;-73
2022/08/13 05:48:43;;;;;;;8.80;5.70;;;;;;;20.03;91.10;99475.09;1820881;78;21083;-73
2022/08/13 05:51:13;;;;;;;10.23;5.92;;;;;;;20.13;91.73;99469.91;1820628;78;21073;-73
2022/08/13 05:53:39;;;;;;;13.53;5.78;;;;;;;20.22;91.95;99454.52;1820994;78;21022;-73
2022/08/13 05:56:09;;;;;;;10.20;5.87;;;;;;;20.32;91.93;99462.69;1821075;78;20982;-74
2022/08/13 05:58:35;;;;;;;9.50;5.95;;;;;;;20.38;91.71;99464.41;1820896;78;21528;-73
2022/08/13 06:03:47;;;;;;;;;;;;;;;20.56;91.49;99466.17;1824036;78;21108;-74
2022/08/13 06:06:15;;;;;;;7.97;6.40;;;;;;;20.64;90.88;99465.59;1795502;78;20225;-73
2022/08/13 06:08:43;;;;;;;10.58;6.80;;;;;;;20.65;90.52;99459.28;1809420;79;20991;-74
2022/08/13 06:11:15;;;;;;;8.43;6.60;;;;;;;20.68;90.30;99459.05;1784035;80;21452;-75
2022/08/13 06:13:45;;;;;;;12.95;6.55;;;;;;;20.76;90.42;99459.31;1812383;78;21141;-74
2022/08/13 06:16:13;;;;;;;10.43;6.47;;;;;;;20.87;90.41;99469.65;1783982;80;21027;-75
2022/08/13 06:18:48;;;;;;;10.38;6.67;;;;;;;20.93;90.20;99466.02;1812515;79;21029;-75
2022/08/13 06:21:13;;;;;;;9.73;5.72;;;;;;;20.99;90.22;99464.66;1774947;79;21644;-75
2022/08/13 06:23:42;;;;;;;10.70;6.30;;;;;;;21.09;90.23;99468.80;1809740;79;21201;-74
2022/08/13 06:26:10;;;;;;;9.08;6.10;;;;;;;21.19;89.50;99464.92;1783982;80;21184;-74
2022/08/13 06:28:37;;;;;;;8.73;6.30;;;;;;;21.24;89.20;99465.41;1812693;79;20986;-74
2022/08/13 06:31:06;;;;;;;11.95;6.58;;;;;;;21.28;88.60;99465.51;1812326;78;21010;-74
2022/08/13 06:33:36;;;;;;;13.10;6.50;;;;;;;21.29;87.99;99463.20;1812768;78;21069;-74
2022/08/13 06:36:08;;;;;;;7.45;6.22;;;;;;;21.30;87.82;99466.23;1777768;80;21132;-74
2022/08/13 06:38:48;;;;;;;8.30;5.85;;;;;;;21.31;87.55;99463.93;1809899;79;21098;-74
2022/08/13 06:41:16;;;;;;;8.53;6.58;;;;;;;21.33;87.43;99461.97;1809612;79;21380;-74
2022/08/13 06:43:49;;;;;;;11.63;7.05;;;;;;;21.35;87.28;99462.73;1784223;80;21063;-75
2022/08/13 06:46:18;;;;;;;10.93;6.78;;;;;;;21.34;86.94;99467.70;1812612;79;20982;-74
2022/08/13 06:48:46;;;;;;;10.40;6.97;;;;;;;21.36;87.03;99469.77;1784397;80;21157;-74
2022/08/13 06:51:13;;;;;;;8.48;6.45;;;;;;;21.39;87.00;99462.83;1812533;79;21114;-73
2022/08/13 06:53:42;;;;;;;12.95;6.42;;;;;;;21.45;87.13;99465.02;1784108;80;21043;-74
2022/08/13 06:56:15;;;;;;;10.03;6.65;;;;;;;21.54;87.37;99460.77;1812435;79;21038;-75
2022/08/13 06:58:47;;;;;;;10.95;6.50;;;;;;;21.66;87.72;99458.92;1754762;80;21058;-74
2022/08/13 07:01:22;;;;;;;9.78;6.67;;;;;;;21.78;87.28;99457.91;1812701;79;21458;-75
2022/08/13 07:03:49;;;;;;;10.28;7.05;;;;;;;21.88;86.83;99454.83;1784236;80;21111;-74
2022/08/13 07:06:18;;;;;;;10.48;6.45;;;;;;;21.99;86.72;99453.08;1813865;78;21029;-74
2022/08/13 07:08:45;;;;;;;11.25;6.47;;;;;;;22.10;86.36;99451.70;1815668;79;21046;-75
2022/08/13 07:11:22;;;;;;;9.88;6.50;;;;;;;22.22;85.78;99446.64;1792439;80;21081;-74
2022/08/13 07:13:52;;;;;;;9.28;6.20;;;;;;;22.32;85.57;99440.55;1815564;79;21050;-75
2022/08/13 07:16:21;;;;;;;7.10;6.33;;;;;;;22.46;84.88;99445.60;1783141;80;21127;-74
2022/08/13 07:18:49;;;;;;;13.03;6.80;;;;;;;22.55;83.81;99439.44;1783402;80;20990;-75
2022/08/13 07:21:20;;;;;;;10.90;6.78;;;;;;;22.62;82.99;99437.92;1815648;79;20952;-74
2022/08/13 07:23:47;;;;;;;10.18;6.20;;;;;;;22.66;82.60;99431.80;1792039;80;21101;-75
2022/08/13 07:26:16;;;;;;;10.65;6.37;;;;;;;22.69;82.75;99429.35;1815431;78;21065;-75
2022/08/13 07:28:46;;;;;;;11.00;7.17;;;;;;;22.75;82.52;99442.24;1783788;80;21132;-74
2022/08/13 07:31:14;;;;;;;8.30;6.53;;;;;;;22.80;82.06;99440.01;1792126;80;21502;-75
2022/08/13 07:33:48;;;;;;;13.00;6.35;;;;;;;22.84;81.13;99438.75;1798522;79;20968;-75
2022/08/13 07:36:13;;;;;;;12.37;7.30;;;;;;;22.83;80.13;99437.06;1787840;79;21114;-74
2022/08/13 07:38:40;;;;;;;12.82;7.03;;;;;;;22.80;80.08;99445.37;1787082;80;21570;-75
2022/08/13 07:41:07;;;;;;;12.25;6.72;;;;;;;22.76;80.26;99453.31;1784498;80;21125;-75
2022/08/13 07:43:39;;;;;;;15.32;6.72;;;;;;;22.70;79.81;99468.11;1786663;80;21055;-75
2022/08/13 07:46:10;;;;;;;10.00;6.83;;;;;;;22.66;79.87;99454.59;1783595;80;21089;-75
2022/08/13 07:48:38;;;;;;;8.90;6.65;;;;;;;22.61;79.12;99457.69;1786684;80;21062;-75
2022/08/13 07:51:18;;;;;;;14.80;8.05;;;;;;;22.52;79.14;99459.80;1786916;80;21014;-74
2022/08/13 07:53:40;;;;;;;13.90;7.67;;;;;;;22.37;81.17;99451.23;1785560;80;21550;-73
2022/08/13 07:56:07;;;;;;;12.82;7.40;;;;;;;22.21;80.60;99459.70;1784284;80;21050;-73
2022/08/13 07:58:36;;;;;;;9.90;6.65;;;;;;;22.04;82.70;99466.94;1786602;80;21502;-74
2022/08/13 08:01:04;;;;;;;9.85;6.42;;;;;;;21.83;82.79;99466.41;1784793;80;20968;-75
2022/08/13 08:03:37;;;;;;;14.83;6.97;;;;;;;21.65;83.32;99448.71;1786589;80;21051;-74
2022/08/13 08:06:05;;;;;;;14.60;7.30;;;;;;;21.49;84.04;99459.80;1753940;81;21165;-73
2022/08/13 08:08:34;;;;;;;13.45;7.03;;;;;;;21.40;84.70;99460.53;1776052;80;21009;-73
2022/08/13 08:11:02;;;;;;;11.50;7.22;;;;;;;21.37;85.12;99454.55;1776091;80;21316;-74
2022/08/13 08:13:31;;;;;;;16.12;7.35;;;;;;;21.35;85.43;99456.03;1776245;80;21073;-74
2022/08/13 08:16:01;;;;;;;9.63;6.90;;;;;;;21.32;85.73;99468.32;1776195;80;21092;-73
2022/08/13 08:18:27;;;;;;;10.98;6.40;;;;;;;21.30;85.88;99456.86;1776330;80;21535;-74
2022/08/13 08:21:08;;;;;;;10.93;7.12;;;;;;;21.29;86.02;99464.05;1776186;80;20997;-75
2022/08/13 08:23:35;;;;;;;13.18;7.42;;;;;;;21.28;86.11;99459.69;1776500;80;21076;-73
2022/08/13 08:26:07;;;;;;;10.03;7.40;;;;;;;21.26;86.35;99447.39;1776061;80;21024;-74
2022/08/13 08:28:32;;;;;;;10.68;6.70;;;;;;;21.25;86.57;99441.66;1776458;80;21033;-74
2022/08/13 08:30:59;;;;;;;11.30;7.58;;;;;;;21.25;86.80;99449.69;1775910;80;21127;-75
2022/08/13 08:33:27;;;;;;;14.73;7.40;;;;;;;21.26;87.18;99454.08;1776021;80;21115;-74
2022/08/13 08:35:54;;;;;;;10.88;8.15;;;;;;;21.28;87.38;99453.47;1776357;80;21535;-73
2022/08/13 08:43:51;;;;;;;13.45;7.80;;;;;;;21.34;87.92;99448.97;1776242;80;21176;-74
2022/08/13 08:46:18;;;;;;;13.55;8.28;;;;;;;21.37;88.10;99450.06;1776106;80;21116;-73
2022/08/13 08:48:45;;;;;;;12.00;7.80;;;;;;;21.38;88.33;99451.75;1775894;80;21052;-74
2022/08/13 08:51:11;;;;;;;10.78;7.83;;;;;;;21.42;88.57;99448.36;1776201;80;20990;-74
2022/08/13 08:53:44;;;;;;;10.72;8.03;;;;;;;21.46;88.67;99449.30;1776128;80;21016;-76
2022/08/13 08:56:08;;;;;;;13.13;7.78;;;;;;;21.51;88.88;99445.80;1775456;80;21140;-74
2022/08/13 08:58:40;;;;;;;12.43;8.25;;;;;;;21.56;89.16;99447.27;1776113;80;21479;-73
2022/08/13 09:01:05;;;;;;;15.10;8.20;;;;;;;21.60;89.07;99442.88;1776014;80;21044;-74
2022/08/13 09:03:31;;;;;;;12.43;7.62;;;;;;;21.65;89.27;99451.85;1776007;80;21044;-74
2022/08/13 09:06:00;;;;;;;10.93;7.72;;;;;;;21.69;89.53;99451.98;1776405;80;21534;-74
2022/08/13 09:08:26;;;;;;;12.00;8.38;;;;;;;21.73;89.67;99447.22;1776194;80;21117;-74
2022/08/13 09:10:54;;;;;;;12.50;8.88;;;;;;;21.76;89.65;99446.97;1775912;80;21044;-73
2022/08/13 09:13:21;;;;;;;14.00;8.33;;;;;;;21.79;89.69;99444.05;1776074;80;21064;-74
2022/08/13 09:15:50;;;;;;;12.90;8.60;;;;;;;21.83;89.56;99440.12;1775911;80;21036;-74
2022/08/13 09:18:21;;;;;;;10.65;9.10;;;;;;;21.84;89.33;99434.64;1776239;80;21063;-74
2022/08/13 09:20:49;;;;;;;12.33;8.68;;;;;;;21.84;89.16;99423.93;1775963;80;21797;-74
2022/08/13 09:23:16;;;;;;;13.78;8.95;;;;;;;21.85;89.34;99416.23;1775974;80;21110;-73
2022/08/13 09:25:51;;;;;;;13.60;8.93;;;;;;;21.87;89.18;99415.64;1775621;80;21110;-75
2022/08/13 09:28:23;;;;;;;14.93;8.60;;;;;;;21.89;89.34;99405.64;1776375;80;21008;-75
2022/08/13 09:30:51;;;;;;;10.68;8.63;;;;;;;21.93;89.50;99405.39;1776030;80;21086;-73
2022/08/13 09:33:20;;;;;;;12.00;8.70;;;;;;;21.96;89.45;99411.84;1769712;80;21116;-74
2022/08/13 09:35:48;;;;;;;13.58;8.65;;;;;;;22.00;89.52;99402.55;1753953;80;21094;-74
2022/08/13 09:38:15;;;;;;;13.90;8.20;;;;;;;22.04;89.84;99402.17;1712872;83;21060;-74
2022/08/13 09:40:52;;;;;;;14.65;8.95;;;;;;;22.10;90.10;99395.94;1742512;81;21201;-75
2022/08/13 09:43:22;;;;;;;12.03;8.25;;;;;;;22.13;90.19;99384.47;1742701;82;20988;-75
2022/08/13 09:45:48;;;;;;;13.93;8.68;;;;;;;22.18;90.30;99384.92;1771517;81;21085;-76
2022/08/13 09:48:15;;;;;;;11.73;8.15;;;;;;;22.24;90.31;99383.53;1771148;81;21116;-75
2022/08/13 09:50:42;;;;;;;11.28;8.43;;;;;;;22.28;90.36;99375.64;1771558;81;21131;-74
2022/08/13 09:53:09;;;;;;;13.38;8.78;;;;;;;22.34;90.56;99379.15;1771456;81;21084;-74
2022/08/13 09:55:37;;;;;;;13.50;9.18;;;;;;;22.42;90.81;99373.95;1771687;81;21029;-75
2022/08/13 09:58:04;;;;;;;11.33;8.28;;;;;;;22.50;90.97;99375.98;1771270;80;21783;-75
2022/08/13 10:00:33;;;;;;;12.37;8.48;;;;;;;22.55;91.00;99380.45;1771338;81;21164;-75
2022/08/13 10:03:04;;;;;;;9.73;8.28;;;;;;;22.62;91.11;99376.23;1771355;81;21088;-75
2022/08/13 10:05:34;;;;;;;19.92;9.48;;;;;;;22.70;91.06;99372.06;1771257;81;21120;-75
2022/08/13 10:08:04;;;;;;;14.40;9.08;;;;;;;22.75;90.55;99370.66;1775182;80;21532;-74
2022/08/13 10:10:33;;;;;;;12.75;8.70;;;;;;;22.82;90.20;99373.66;1776946;80;21151;-74
2022/08/13 10:13:01;;;;;;;14.78;9.13;;;;;;;22.89;90.18;99368.10;1776694;80;21103;-74
2022/08/13 10:15:28;;;;;;;15.50;9.10;;;;;;;22.97;89.96;99364.25;1776967;80;21480;-74
2022/08/13 10:17:58;;;;;;;17.35;9.50;;;;;;;23.07;90.13;99363.48;1776789;80;20965;-75
2022/08/13 10:20:33;;;;;;;14.85;8.60;;;;;;;23.16;89.95;99363.98;1776800;80;21061;-74
2022/08/13 10:23:01;;;;;;;15.08;8.28;;;;;;;23.26;89.71;99354.11;1776736;80;21121;-74
2022/08/13 10:25:29;;;;;;;11.85;8.13;;;;;;;23.40;89.64;99352.02;1777497;80;21516;-75
2022/08/13 10:27:55;;;;;;;12.75;8.95;;;;;;;23.50;89.08;99350.19;1777072;80;21484;-74
2022/08/13 10:30:26;;;;;;;14.35;8.90;;;;;;;23.61;88.68;99346.03;1777055;80;21548;-74
2022/08/13 10:32:55;;;;;;;10.03;8.30;;;;;;;23.79;88.77;99349.34;1777020;80;21056;-75
2022/08/13 10:35:24;;;;;;;17.20;8.38;;;;;;;23.96;88.82;99348.67;1777073;80;21114;-74
2022/08/13 10:37:57;;;;;;;11.15;8.40;;;;;;;24.13;88.44;99347.59;1777267;80;20981;-74
2022/08/13 10:40:24;;;;;;;13.50;8.13;;;;;;;24.30;87.71;99348.18;1777240;80;21634;-74
2022/08/13 10:42:52;;;;;;;13.50;7.95;;;;;;;24.48;86.05;99338.87;1777039;80;21064;-74
2022/08/13 10:45:25;;;;;;;14.00;7.33;;;;;;;24.66;85.15;99332.23;1776908;80;21115;-75
2022/08/13 10:47:54;;;;;;;10.70;7.25;;;;;;;24.81;82.14;99329.42;1777287;80;21680;-74
2022/08/13 10:50:29;;;;;;;11.93;7.53;;;;;;;24.97;79.54;99338.69;1776985;80;21024;-74
2022/08/13 10:52:51;;;;;;;14.80;7.45;;;;;;;25.11;77.79;99335.47;1776082;80;21083;-74
2022/08/13 10:55:18;;;;;;;14.90;8.10;;;;;;;25.24;76.48;99335.63;1776927;80;21017;-74
2022/08/13 10:57:45;;;;;;;12.98;7.65;;;;;;;25.39;75.65;99338.17;1777023;80;20989;-74
2022/08/13 11:00:14;;;;;;;11.28;7.35;;;;;;;25.54;74.91;99332.59;1777080;80;21085;-75
2022/08/13 11:02:44;;;;;;;17.20;7.75;;;;;;;25.69;73.12;99338.80;1776991;80;21075;-74
2022/08/13 11:05:11;;;;;;;11.50;7.37;;;;;;;25.83;73.79;99336.05;1776925;80;21017;-74
2022/08/13 11:07:38;;;;;;;16.48;7.37;;;;;;;25.99;73.06;99331.30;1776924;80;21062;-75
2022/08/13 11:10:08;;;;;;;8.80;7.12;;;;;;;26.16;71.52;99327.74;1776987;80;21037;-74
2022/08/13 11:12:36;;;;;;;15.58;7.53;;;;;;;26.31;71.37;99326.66;1777049;80;21763;-74
2022/08/13 11:15:06;;;;;;;12.07;7.00;;;;;;;26.49;69.97;99317.13;1776914;80;21056;-75
2022/08/13 11:17:34;;;;;;;11.25;7.10;;;;;;;26.62;68.63;99326.98;1777420;80;20992;-75
2022/08/13 11:20:13;;;;;;;13.43;6.70;;;;;;;26.74;68.45;99318.64;1776951;80;20998;-74
2022/08/13 11:22:29;;;;;;;13.30;6.85;;;;;;;26.90;68.23;99322.77;1774543;80;21044;-74
2022/08/13 11:25:01;;;;;;;10.82;7.08;;;;;;;27.06;67.70;99316.05;1777066;80;21120;-74
2022/08/13 11:27:27;;;;;;;11.83;6.62;;;;;;;27.21;64.96;99314.07;1818932;78;21013;-74
2022/08/13 11:29:54;;;;;;;12.95;6.80;;;;;;;27.32;63.02;99308.39;1816095;78;21063;-74
2022/08/13 11:32:21;;;;;;;19.55;6.78;;;;;;;27.40;62.33;99311.11;1820860;78;21056;-75
2022/08/13 11:34:47;;;;;;;10.93;6.87;;;;;;;27.49;62.53;99317.85;1821212;78;21121;-75
2022/08/13 11:37:14;;;;;;;9.13;7.03;;;;;;;27.55;61.13;99313.14;1820998;78;22027;-75
2022/08/13 11:39:40;;;;;;;10.55;6.50;;;;;;;27.66;61.20;99312.81;1821398;78;21539;-74
2022/08/13 11:42:07;;;;;;;16.37;6.55;;;;;;;27.80;60.29;99305.36;1821028;78;21019;-74
2022/08/13 11:44:34;;;;;;;11.83;6.83;;;;;;;27.92;60.17;99310.44;1820760;78;21059;-74
2022/08/13 11:47:00;;;;;;;11.97;6.35;;;;;;;27.99;58.95;99308.77;1821245;78;21047;-75
2022/08/13 11:49:27;;;;;;;13.50;6.78;;;;;;;27.98;58.63;99308.45;1820938;78;21181;-74
2022/08/13 11:51:53;;;;;;;12.60;6.92;;;;;;;28.00;59.41;99306.41;1820979;78;21193;-75